sensor_id;sensor_type;location;lat;lon;timestamp;temperature;humidity
37806;DHT22;25082;50.870;0.022;2022-12-18T00:01:16;19.00;50.50
37806;DHT22;25082;50.870;0.022;2022-12-18T00:03:43;19.00;50.40
37806;DHT22;25082;50.870;0.022;2022-12-18T00:06:09;18.90;50.30
37806;DHT22;25082;50.870;0.022;2022-12-18T00:08:35;18.90;50.30
37806;DHT22;25082;50.870;0.022;2022-12-18T00:11:08;18.90;50.30
37806;DHT22;25082;50.870;0.022;2022-12-18T00:13:35;18.90;50.20
37806;DHT22;25082;50.870;0.022;2022-12-18T00:16:05;18.80;50.20
37806;DHT22;25082;50.870;0.022;2022-12-18T00:18:32;18.80;50.10
37806;DHT22;25082;50.870;0.022;2022-12-18T00:21:02;18.80;50.10
37806;DHT22;25082;50.870;0.022;2022-12-18T00:23:29;18.80;50.00
37806;DHT22;25082;50.870;0.022;2022-12-18T00:25:58;18.80;50.00
37806;DHT22;25082;50.870;0.022;2022-12-18T00:28:24;18.70;49.90
37806;DHT22;25082;50.870;0.022;2022-12-18T00:30:50;18.80;50.00
37806;DHT22;25082;50.870;0.022;2022-12-18T00:33:17;18.70;49.90
37806;DHT22;25082;50.870;0.022;2022-12-18T00:35:43;18.70;49.90
37806;DHT22;25082;50.870;0.022;2022-12-18T00:38:08;18.70;49.80
37806;DHT22;25082;50.870;0.022;2022-12-18T00:40:34;18.70;49.80
37806;DHT22;25082;50.870;0.022;2022-12-18T00:43:00;18.60;49.80
37806;DHT22;25082;50.870;0.022;2022-12-18T00:45:30;18.60;49.70
37806;DHT22;25082;50.870;0.022;2022-12-18T00:47:56;18.60;49.70
37806;DHT22;25082;50.870;0.022;2022-12-18T00:50:24;18.60;49.70
37806;DHT22;25082;50.870;0.022;2022-12-18T00:52:50;18.60;49.60
37806;DHT22;25082;50.870;0.022;2022-12-18T00:55:16;18.60;49.70
37806;DHT22;25082;50.870;0.022;2022-12-18T00:57:42;18.50;49.60
37806;DHT22;25082;50.870;0.022;2022-12-18T01:00:11;18.60;49.60
37806;DHT22;25082;50.870;0.022;2022-12-18T01:02:37;18.50;49.60
37806;DHT22;25082;50.870;0.022;2022-12-18T01:05:03;18.50;49.60
37806;DHT22;25082;50.870;0.022;2022-12-18T01:07:29;18.50;49.60
37806;DHT22;25082;50.870;0.022;2022-12-18T01:09:55;18.50;49.60
37806;DHT22;25082;50.870;0.022;2022-12-18T01:12:21;18.50;49.60
37806;DHT22;25082;50.870;0.022;2022-12-18T01:14:47;18.40;49.50
37806;DHT22;25082;50.870;0.022;2022-12-18T01:17:12;18.50;49.60
37806;DHT22;25082;50.870;0.022;2022-12-18T01:19:38;18.40;49.50
37806;DHT22;25082;50.870;0.022;2022-12-18T01:22:04;18.40;49.50
37806;DHT22;25082;50.870;0.022;2022-12-18T01:24:30;18.40;49.50
37806;DHT22;25082;50.870;0.022;2022-12-18T01:26:55;18.40;49.50
37806;DHT22;25082;50.870;0.022;2022-12-18T01:29:22;18.40;49.40
37806;DHT22;25082;50.870;0.022;2022-12-18T01:31:48;18.30;49.40
37806;DHT22;25082;50.870;0.022;2022-12-18T01:34:14;18.40;49.50
37806;DHT22;25082;50.870;0.022;2022-12-18T01:36:40;18.30;49.40
37806;DHT22;25082;50.870;0.022;2022-12-18T01:39:12;18.30;49.40
37806;DHT22;25082;50.870;0.022;2022-12-18T01:41:38;18.30;49.40
37806;DHT22;25082;50.870;0.022;2022-12-18T01:47:32;18.30;49.40
37806;DHT22;25082;50.870;0.022;2022-12-18T01:50:05;18.30;49.40
37806;DHT22;25082;50.870;0.022;2022-12-18T01:52:33;18.20;49.40
37806;DHT22;25082;50.870;0.022;2022-12-18T01:54:59;18.30;49.40
37806;DHT22;25082;50.870;0.022;2022-12-18T01:57:26;18.20;49.40
37806;DHT22;25082;50.870;0.022;2022-12-18T01:59:55;18.20;49.40
37806;DHT22;25082;50.870;0.022;2022-12-18T02:02:22;18.20;49.30
37806;DHT22;25082;50.870;0.022;2022-12-18T02:04:48;18.10;49.30
37806;DHT22;25082;50.870;0.022;2022-12-18T02:07:42;18.20;49.30
37806;DHT22;25082;50.870;0.022;2022-12-18T02:10:16;18.10;49.10
37806;DHT22;25082;50.870;0.022;2022-12-18T02:18:19;18.10;49.10
37806;DHT22;25082;50.870;0.022;2022-12-18T02:23:55;18.10;49.00
37806;DHT22;25082;50.870;0.022;2022-12-18T02:26:24;18.10;49.00
37806;DHT22;25082;50.870;0.022;2022-12-18T02:29:01;18.00;49.00
37806;DHT22;25082;50.870;0.022;2022-12-18T02:31:36;18.00;49.50
37806;DHT22;25082;50.870;0.022;2022-12-18T02:34:07;18.00;49.00
37806;DHT22;25082;50.870;0.022;2022-12-18T02:36:36;18.00;49.00
37806;DHT22;25082;50.870;0.022;2022-12-18T02:39:04;18.00;49.00
37806;DHT22;25082;50.870;0.022;2022-12-18T02:41:31;18.00;49.00
37806;DHT22;25082;50.870;0.022;2022-12-18T02:44:00;18.00;48.90
37806;DHT22;25082;50.870;0.022;2022-12-18T02:46:34;18.00;48.90
37806;DHT22;25082;50.870;0.022;2022-12-18T02:49:31;17.90;48.80
37806;DHT22;25082;50.870;0.022;2022-12-18T02:52:12;17.90;48.80
37806;DHT22;25082;50.870;0.022;2022-12-18T02:57:46;17.90;48.80
37806;DHT22;25082;50.870;0.022;2022-12-18T03:05:40;17.90;48.90
37806;DHT22;25082;50.870;0.022;2022-12-18T03:08:18;17.90;48.80
37806;DHT22;25082;50.870;0.022;2022-12-18T03:16:10;17.80;48.80
37806;DHT22;25082;50.870;0.022;2022-12-18T03:21:13;17.80;48.90
37806;DHT22;25082;50.870;0.022;2022-12-18T03:23:45;17.80;48.80
37806;DHT22;25082;50.870;0.022;2022-12-18T03:26:16;17.80;48.80
37806;DHT22;25082;50.870;0.022;2022-12-18T03:28:47;17.80;48.80
37806;DHT22;25082;50.870;0.022;2022-12-18T03:31:14;17.70;48.70
37806;DHT22;25082;50.870;0.022;2022-12-18T03:33:51;17.70;48.70
37806;DHT22;25082;50.870;0.022;2022-12-18T03:36:17;17.70;48.80
37806;DHT22;25082;50.870;0.022;2022-12-18T03:38:43;17.70;48.70
37806;DHT22;25082;50.870;0.022;2022-12-18T03:44:20;17.70;48.70
37806;DHT22;25082;50.870;0.022;2022-12-18T03:47:01;17.70;48.60
37806;DHT22;25082;50.870;0.022;2022-12-18T03:52:28;17.70;48.60
37806;DHT22;25082;50.870;0.022;2022-12-18T03:54:57;17.70;48.50
37806;DHT22;25082;50.870;0.022;2022-12-18T03:57:25;17.60;48.40
37806;DHT22;25082;50.870;0.022;2022-12-18T04:00:04;17.60;48.40
37806;DHT22;25082;50.870;0.022;2022-12-18T04:02:31;17.60;48.40
37806;DHT22;25082;50.870;0.022;2022-12-18T04:05:00;17.60;48.50
37806;DHT22;25082;50.870;0.022;2022-12-18T04:07:27;17.60;48.50
37806;DHT22;25082;50.870;0.022;2022-12-18T04:09:56;17.60;48.40
37806;DHT22;25082;50.870;0.022;2022-12-18T04:12:25;17.60;48.50
37806;DHT22;25082;50.870;0.022;2022-12-18T04:14:51;17.60;48.50
37806;DHT22;25082;50.870;0.022;2022-12-18T04:17:17;17.60;48.60
37806;DHT22;25082;50.870;0.022;2022-12-18T04:19:43;17.60;48.50
37806;DHT22;25082;50.870;0.022;2022-12-18T04:22:10;17.60;48.50
37806;DHT22;25082;50.870;0.022;2022-12-18T04:24:36;17.50;48.40
37806;DHT22;25082;50.870;0.022;2022-12-18T04:27:02;17.60;48.50
37806;DHT22;25082;50.870;0.022;2022-12-18T04:29:28;17.50;48.40
37806;DHT22;25082;50.870;0.022;2022-12-18T04:31:53;17.50;48.30
37806;DHT22;25082;50.870;0.022;2022-12-18T04:34:20;17.50;48.40
37806;DHT22;25082;50.870;0.022;2022-12-18T04:36:45;17.50;48.40
37806;DHT22;25082;50.870;0.022;2022-12-18T04:39:11;17.50;48.30
37806;DHT22;25082;50.870;0.022;2022-12-18T04:41:37;17.50;48.30
37806;DHT22;25082;50.870;0.022;2022-12-18T04:44:04;17.50;48.40
37806;DHT22;25082;50.870;0.022;2022-12-18T04:46:29;17.40;48.30
37806;DHT22;25082;50.870;0.022;2022-12-18T04:48:55;17.40;48.20
37806;DHT22;25082;50.870;0.022;2022-12-18T04:51:21;17.50;48.30
37806;DHT22;25082;50.870;0.022;2022-12-18T04:53:47;17.40;48.20
37806;DHT22;25082;50.870;0.022;2022-12-18T04:56:14;17.40;48.20
37806;DHT22;25082;50.870;0.022;2022-12-18T04:58:43;17.40;48.20
37806;DHT22;25082;50.870;0.022;2022-12-18T05:01:09;17.40;48.10
37806;DHT22;25082;50.870;0.022;2022-12-18T05:03:36;17.40;48.20
37806;DHT22;25082;50.870;0.022;2022-12-18T05:06:03;17.40;48.20
37806;DHT22;25082;50.870;0.022;2022-12-18T05:08:29;17.40;48.20
37806;DHT22;25082;50.870;0.022;2022-12-18T05:11:10;17.40;48.20
37806;DHT22;25082;50.870;0.022;2022-12-18T05:13:37;17.40;48.20
37806;DHT22;25082;50.870;0.022;2022-12-18T05:16:03;17.40;48.20
37806;DHT22;25082;50.870;0.022;2022-12-18T05:18:30;17.30;48.20
37806;DHT22;25082;50.870;0.022;2022-12-18T05:20:56;17.30;48.20
37806;DHT22;25082;50.870;0.022;2022-12-18T05:23:23;17.30;48.20
37806;DHT22;25082;50.870;0.022;2022-12-18T05:25:53;17.30;48.20
37806;DHT22;25082;50.870;0.022;2022-12-18T05:28:20;17.30;48.20
37806;DHT22;25082;50.870;0.022;2022-12-18T05:30:56;17.30;48.20
37806;DHT22;25082;50.870;0.022;2022-12-18T05:33:24;17.30;48.20
37806;DHT22;25082;50.870;0.022;2022-12-18T05:35:52;17.30;48.10
37806;DHT22;25082;50.870;0.022;2022-12-18T05:38:19;17.30;48.20
37806;DHT22;25082;50.870;0.022;2022-12-18T05:40:45;17.30;48.20
37806;DHT22;25082;50.870;0.022;2022-12-18T05:43:11;17.20;48.20
37806;DHT22;25082;50.870;0.022;2022-12-18T05:45:38;17.30;48.20
37806;DHT22;25082;50.870;0.022;2022-12-18T05:48:04;17.30;48.20
37806;DHT22;25082;50.870;0.022;2022-12-18T05:50:30;17.20;48.10
37806;DHT22;25082;50.870;0.022;2022-12-18T05:52:56;17.30;48.20
37806;DHT22;25082;50.870;0.022;2022-12-18T05:55:22;17.20;48.10
37806;DHT22;25082;50.870;0.022;2022-12-18T05:57:48;17.20;48.20
37806;DHT22;25082;50.870;0.022;2022-12-18T06:00:14;17.20;48.10
37806;DHT22;25082;50.870;0.022;2022-12-18T06:02:40;17.20;48.10
37806;DHT22;25082;50.870;0.022;2022-12-18T06:05:05;17.20;48.10
37806;DHT22;25082;50.870;0.022;2022-12-18T06:07:31;17.20;48.10
37806;DHT22;25082;50.870;0.022;2022-12-18T06:09:57;17.20;48.10
37806;DHT22;25082;50.870;0.022;2022-12-18T06:12:23;17.20;48.10
37806;DHT22;25082;50.870;0.022;2022-12-18T06:14:48;17.20;48.10
37806;DHT22;25082;50.870;0.022;2022-12-18T06:17:14;17.20;48.10
37806;DHT22;25082;50.870;0.022;2022-12-18T06:19:40;17.20;48.20
37806;DHT22;25082;50.870;0.022;2022-12-18T06:22:06;17.20;48.10
37806;DHT22;25082;50.870;0.022;2022-12-18T06:24:31;17.20;48.10
37806;DHT22;25082;50.870;0.022;2022-12-18T06:26:58;17.10;48.10
37806;DHT22;25082;50.870;0.022;2022-12-18T06:29:24;17.10;48.20
37806;DHT22;25082;50.870;0.022;2022-12-18T06:31:49;17.10;48.10
37806;DHT22;25082;50.870;0.022;2022-12-18T06:34:15;17.10;48.10
37806;DHT22;25082;50.870;0.022;2022-12-18T06:36:41;17.10;48.10
37806;DHT22;25082;50.870;0.022;2022-12-18T06:39:06;17.10;48.10
37806;DHT22;25082;50.870;0.022;2022-12-18T06:41:32;17.10;48.00
37806;DHT22;25082;50.870;0.022;2022-12-18T06:43:58;17.10;48.00
37806;DHT22;25082;50.870;0.022;2022-12-18T06:46:24;17.10;48.00
37806;DHT22;25082;50.870;0.022;2022-12-18T06:48:50;17.10;48.10
37806;DHT22;25082;50.870;0.022;2022-12-18T06:51:18;17.10;48.00
37806;DHT22;25082;50.870;0.022;2022-12-18T06:53:44;17.10;48.10
37806;DHT22;25082;50.870;0.022;2022-12-18T06:56:09;17.10;48.00
37806;DHT22;25082;50.870;0.022;2022-12-18T06:58:35;17.10;48.10
37806;DHT22;25082;50.870;0.022;2022-12-18T07:01:02;17.00;48.00
37806;DHT22;25082;50.870;0.022;2022-12-18T07:03:28;17.00;47.90
37806;DHT22;25082;50.870;0.022;2022-12-18T07:05:54;17.10;47.90
37806;DHT22;25082;50.870;0.022;2022-12-18T07:08:20;17.00;47.90
37806;DHT22;25082;50.870;0.022;2022-12-18T07:10:46;17.00;47.90
37806;DHT22;25082;50.870;0.022;2022-12-18T07:13:15;17.00;47.90
37806;DHT22;25082;50.870;0.022;2022-12-18T07:15:40;17.00;48.00
37806;DHT22;25082;50.870;0.022;2022-12-18T07:18:06;17.00;48.00
37806;DHT22;25082;50.870;0.022;2022-12-18T07:20:32;17.00;48.00
37806;DHT22;25082;50.870;0.022;2022-12-18T07:22:57;17.00;48.00
37806;DHT22;25082;50.870;0.022;2022-12-18T07:25:23;17.00;48.00
37806;DHT22;25082;50.870;0.022;2022-12-18T07:27:49;17.00;48.00
37806;DHT22;25082;50.870;0.022;2022-12-18T07:30:15;17.00;48.00
37806;DHT22;25082;50.870;0.022;2022-12-18T07:32:40;16.90;47.90
37806;DHT22;25082;50.870;0.022;2022-12-18T07:35:06;16.90;47.90
37806;DHT22;25082;50.870;0.022;2022-12-18T07:37:32;16.90;47.90
37806;DHT22;25082;50.870;0.022;2022-12-18T07:39:58;16.90;48.50
37806;DHT22;25082;50.870;0.022;2022-12-18T07:42:23;16.90;47.90
37806;DHT22;25082;50.870;0.022;2022-12-18T07:44:59;16.90;47.90
37806;DHT22;25082;50.870;0.022;2022-12-18T07:47:26;16.90;47.80
37806;DHT22;25082;50.870;0.022;2022-12-18T07:49:51;16.90;47.80
37806;DHT22;25082;50.870;0.022;2022-12-18T07:52:17;16.90;47.80
37806;DHT22;25082;50.870;0.022;2022-12-18T07:54:43;16.90;47.80
37806;DHT22;25082;50.870;0.022;2022-12-18T07:57:09;16.90;47.90
37806;DHT22;25082;50.870;0.022;2022-12-18T07:59:35;16.90;47.80
37806;DHT22;25082;50.870;0.022;2022-12-18T08:02:01;16.90;47.80
37806;DHT22;25082;50.870;0.022;2022-12-18T08:04:27;16.90;47.80
37806;DHT22;25082;50.870;0.022;2022-12-18T08:06:53;16.80;47.70
37806;DHT22;25082;50.870;0.022;2022-12-18T08:09:18;16.80;47.80
37806;DHT22;25082;50.870;0.022;2022-12-18T08:11:44;16.80;47.80
37806;DHT22;25082;50.870;0.022;2022-12-18T08:14:10;16.80;47.80
37806;DHT22;25082;50.870;0.022;2022-12-18T08:16:36;16.80;47.80
37806;DHT22;25082;50.870;0.022;2022-12-18T08:19:02;16.80;47.80
37806;DHT22;25082;50.870;0.022;2022-12-18T08:21:30;16.80;47.70
37806;DHT22;25082;50.870;0.022;2022-12-18T08:23:57;16.80;47.80
37806;DHT22;25082;50.870;0.022;2022-12-18T08:26:24;16.80;47.70
37806;DHT22;25082;50.870;0.022;2022-12-18T08:28:52;16.70;47.70
37806;DHT22;25082;50.870;0.022;2022-12-18T08:31:19;16.80;47.70
37806;DHT22;25082;50.870;0.022;2022-12-18T08:33:45;16.80;47.80
37806;DHT22;25082;50.870;0.022;2022-12-18T08:36:13;16.70;47.70
37806;DHT22;25082;50.870;0.022;2022-12-18T08:38:39;16.80;47.80
37806;DHT22;25082;50.870;0.022;2022-12-18T08:41:10;16.80;47.80
37806;DHT22;25082;50.870;0.022;2022-12-18T08:43:36;16.70;47.70
37806;DHT22;25082;50.870;0.022;2022-12-18T08:46:22;16.70;47.70
37806;DHT22;25082;50.870;0.022;2022-12-18T08:48:49;16.70;47.70
37806;DHT22;25082;50.870;0.022;2022-12-18T08:51:18;16.70;47.80
37806;DHT22;25082;50.870;0.022;2022-12-18T08:53:45;16.80;47.90
37806;DHT22;25082;50.870;0.022;2022-12-18T08:56:11;16.80;47.80
37806;DHT22;25082;50.870;0.022;2022-12-18T08:58:38;16.80;47.70
37806;DHT22;25082;50.870;0.022;2022-12-18T09:01:06;16.90;47.70
37806;DHT22;25082;50.870;0.022;2022-12-18T09:03:32;16.90;47.70
37806;DHT22;25082;50.870;0.022;2022-12-18T09:05:58;17.00;47.60
37806;DHT22;25082;50.870;0.022;2022-12-18T09:08:25;17.00;47.70
37806;DHT22;25082;50.870;0.022;2022-12-18T09:10:51;17.10;47.60
37806;DHT22;25082;50.870;0.022;2022-12-18T09:13:18;17.10;47.50
37806;DHT22;25082;50.870;0.022;2022-12-18T09:15:51;17.10;47.60
37806;DHT22;25082;50.870;0.022;2022-12-18T09:18:18;17.10;47.50
37806;DHT22;25082;50.870;0.022;2022-12-18T09:20:45;17.20;47.50
37806;DHT22;25082;50.870;0.022;2022-12-18T09:23:11;17.20;47.50
37806;DHT22;25082;50.870;0.022;2022-12-18T09:25:38;17.20;47.60
37806;DHT22;25082;50.870;0.022;2022-12-18T09:28:09;17.20;47.70
37806;DHT22;25082;50.870;0.022;2022-12-18T09:30:40;17.30;47.70
37806;DHT22;25082;50.870;0.022;2022-12-18T09:33:06;17.30;47.70
37806;DHT22;25082;50.870;0.022;2022-12-18T09:35:35;17.30;48.30
37806;DHT22;25082;50.870;0.022;2022-12-18T09:38:01;17.30;47.70
37806;DHT22;25082;50.870;0.022;2022-12-18T09:40:32;17.40;47.80
37806;DHT22;25082;50.870;0.022;2022-12-18T09:43:04;17.40;47.70
37806;DHT22;25082;50.870;0.022;2022-12-18T09:45:40;17.40;47.70
37806;DHT22;25082;50.870;0.022;2022-12-18T09:48:27;17.40;47.70
37806;DHT22;25082;50.870;0.022;2022-12-18T09:51:01;17.50;47.80
37806;DHT22;25082;50.870;0.022;2022-12-18T09:53:32;17.50;47.80
37806;DHT22;25082;50.870;0.022;2022-12-18T09:56:00;17.50;47.90
37806;DHT22;25082;50.870;0.022;2022-12-18T09:58:45;17.50;47.90
37806;DHT22;25082;50.870;0.022;2022-12-18T10:01:21;17.50;47.90
37806;DHT22;25082;50.870;0.022;2022-12-18T10:03:48;17.50;47.90
37806;DHT22;25082;50.870;0.022;2022-12-18T10:06:20;17.60;48.00
37806;DHT22;25082;50.870;0.022;2022-12-18T10:15:08;17.60;48.00
37806;DHT22;25082;50.870;0.022;2022-12-18T10:17:51;17.60;48.00
37806;DHT22;25082;50.870;0.022;2022-12-18T10:23:33;17.70;48.20
37806;DHT22;25082;50.870;0.022;2022-12-18T10:26:05;17.70;48.80
37806;DHT22;25082;50.870;0.022;2022-12-18T10:28:32;17.60;48.30
37806;DHT22;25082;50.870;0.022;2022-12-18T10:30:58;17.70;48.50
37806;DHT22;25082;50.870;0.022;2022-12-18T10:33:29;17.70;48.80
37806;DHT22;25082;50.870;0.022;2022-12-18T10:35:55;17.70;49.00
37806;DHT22;25082;50.870;0.022;2022-12-18T10:38:29;17.70;49.30
37806;DHT22;25082;50.870;0.022;2022-12-18T10:51:29;17.80;49.60
37806;DHT22;25082;50.870;0.022;2022-12-18T10:54:25;17.80;49.70
37806;DHT22;25082;50.870;0.022;2022-12-18T10:56:51;17.80;49.90
37806;DHT22;25082;50.870;0.022;2022-12-18T10:59:18;17.80;49.90
37806;DHT22;25082;50.870;0.022;2022-12-18T11:01:55;17.80;49.90
37806;DHT22;25082;50.870;0.022;2022-12-18T11:07:04;17.80;50.10
37806;DHT22;25082;50.870;0.022;2022-12-18T11:09:32;17.80;50.20
37806;DHT22;25082;50.870;0.022;2022-12-18T11:12:03;17.80;50.20
37806;DHT22;25082;50.870;0.022;2022-12-18T11:14:34;17.90;50.40
37806;DHT22;25082;50.870;0.022;2022-12-18T11:17:19;17.80;49.50
37806;DHT22;25082;50.870;0.022;2022-12-18T11:19:55;17.80;50.20
37806;DHT22;25082;50.870;0.022;2022-12-18T11:22:27;17.80;50.60
37806;DHT22;25082;50.870;0.022;2022-12-18T11:27:38;17.80;50.80
37806;DHT22;25082;50.870;0.022;2022-12-18T11:30:31;17.90;51.20
37806;DHT22;25082;50.870;0.022;2022-12-18T11:33:13;17.90;51.40
37806;DHT22;25082;50.870;0.022;2022-12-18T11:35:55;18.00;51.40
37806;DHT22;25082;50.870;0.022;2022-12-18T11:38:28;18.00;51.70
37806;DHT22;25082;50.870;0.022;2022-12-18T11:41:05;18.00;52.00
37806;DHT22;25082;50.870;0.022;2022-12-18T11:44:05;18.00;52.30
37806;DHT22;25082;50.870;0.022;2022-12-18T11:46:38;18.10;51.60
37806;DHT22;25082;50.870;0.022;2022-12-18T11:49:12;18.10;51.50
37806;DHT22;25082;50.870;0.022;2022-12-18T11:52:00;18.10;51.50
37806;DHT22;25082;50.870;0.022;2022-12-18T11:54:27;18.10;51.50
37806;DHT22;25082;50.870;0.022;2022-12-18T11:56:58;18.10;51.50
37806;DHT22;25082;50.870;0.022;2022-12-18T11:59:52;18.10;51.60
37806;DHT22;25082;50.870;0.022;2022-12-18T12:08:41;18.10;52.30
37806;DHT22;25082;50.870;0.022;2022-12-18T12:16:57;18.20;52.50
37806;DHT22;25082;50.870;0.022;2022-12-18T12:19:33;18.20;52.70
37806;DHT22;25082;50.870;0.022;2022-12-18T12:22:22;18.20;53.50
37806;DHT22;25082;50.870;0.022;2022-12-18T12:27:29;18.30;53.40
37806;DHT22;25082;50.870;0.022;2022-12-18T12:30:21;18.30;53.40
37806;DHT22;25082;50.870;0.022;2022-12-18T12:40:28;18.30;54.10
37806;DHT22;25082;50.870;0.022;2022-12-18T12:43:03;18.30;54.10
37806;DHT22;25082;50.870;0.022;2022-12-18T12:45:52;18.30;54.20
37806;DHT22;25082;50.870;0.022;2022-12-18T12:48:40;18.30;54.20
37806;DHT22;25082;50.870;0.022;2022-12-18T12:51:16;18.30;54.60
37806;DHT22;25082;50.870;0.022;2022-12-18T12:53:43;18.30;54.70
37806;DHT22;25082;50.870;0.022;2022-12-18T12:56:11;18.30;54.50
37806;DHT22;25082;50.870;0.022;2022-12-18T12:59:08;18.40;54.70
37806;DHT22;25082;50.870;0.022;2022-12-18T13:04:44;18.40;54.80
37806;DHT22;25082;50.870;0.022;2022-12-18T13:07:16;18.40;54.90
37806;DHT22;25082;50.870;0.022;2022-12-18T13:10:22;18.40;55.50
37806;DHT22;25082;50.870;0.022;2022-12-18T13:17:48;18.40;55.60
37806;DHT22;25082;50.870;0.022;2022-12-18T13:20:15;18.40;55.60
37806;DHT22;25082;50.870;0.022;2022-12-18T13:22:48;18.50;55.60
37806;DHT22;25082;50.870;0.022;2022-12-18T13:25:28;18.40;55.70
37806;DHT22;25082;50.870;0.022;2022-12-18T13:28:02;18.50;55.80
37806;DHT22;25082;50.870;0.022;2022-12-18T13:43:52;18.50;55.70
37806;DHT22;25082;50.870;0.022;2022-12-18T13:51:24;18.60;56.10
37806;DHT22;25082;50.870;0.022;2022-12-18T13:53:53;18.60;56.10
37806;DHT22;25082;50.870;0.022;2022-12-18T13:56:29;18.60;56.10
37806;DHT22;25082;50.870;0.022;2022-12-18T14:01:46;18.60;56.20
37806;DHT22;25082;50.870;0.022;2022-12-18T14:04:25;18.60;56.00
37806;DHT22;25082;50.870;0.022;2022-12-18T14:07:27;18.60;56.00
37806;DHT22;25082;50.870;0.022;2022-12-18T14:09:55;18.70;56.10
37806;DHT22;25082;50.870;0.022;2022-12-18T14:12:33;18.70;56.20
37806;DHT22;25082;50.870;0.022;2022-12-18T14:17:47;18.70;56.10
37806;DHT22;25082;50.870;0.022;2022-12-18T14:20:15;18.70;56.20
37806;DHT22;25082;50.870;0.022;2022-12-18T14:22:45;18.80;56.50
37806;DHT22;25082;50.870;0.022;2022-12-18T14:25:18;18.80;56.50
37806;DHT22;25082;50.870;0.022;2022-12-18T14:27:48;18.80;56.50
37806;DHT22;25082;50.870;0.022;2022-12-18T14:33:13;18.80;56.30
37806;DHT22;25082;50.870;0.022;2022-12-18T14:35:55;18.90;56.30
37806;DHT22;25082;50.870;0.022;2022-12-18T14:40:56;18.90;56.40
37806;DHT22;25082;50.870;0.022;2022-12-18T14:43:29;18.90;56.30
37806;DHT22;25082;50.870;0.022;2022-12-18T14:45:55;18.90;56.20
37806;DHT22;25082;50.870;0.022;2022-12-18T14:48:40;18.90;56.30
37806;DHT22;25082;50.870;0.022;2022-12-18T14:51:18;18.90;56.30
37806;DHT22;25082;50.870;0.022;2022-12-18T14:56:47;18.90;56.90
37806;DHT22;25082;50.870;0.022;2022-12-18T14:59:21;19.00;57.20
37806;DHT22;25082;50.870;0.022;2022-12-18T15:04:40;19.00;58.30
37806;DHT22;25082;50.870;0.022;2022-12-18T15:07:21;19.10;58.10
37806;DHT22;25082;50.870;0.022;2022-12-18T15:10:13;19.10;57.90
37806;DHT22;25082;50.870;0.022;2022-12-18T15:12:44;19.10;57.80
37806;DHT22;25082;50.870;0.022;2022-12-18T15:20:55;19.10;57.50
37806;DHT22;25082;50.870;0.022;2022-12-18T15:26:03;19.10;57.40
37806;DHT22;25082;50.870;0.022;2022-12-18T15:34:00;19.20;57.30
37806;DHT22;25082;50.870;0.022;2022-12-18T15:36:29;19.20;57.20
37806;DHT22;25082;50.870;0.022;2022-12-18T15:38:56;19.20;57.20
37806;DHT22;25082;50.870;0.022;2022-12-18T15:41:23;19.10;57.10
37806;DHT22;25082;50.870;0.022;2022-12-18T15:43:51;19.20;57.10
37806;DHT22;25082;50.870;0.022;2022-12-18T15:46:22;19.20;57.10
37806;DHT22;25082;50.870;0.022;2022-12-18T15:48:50;19.20;57.00
37806;DHT22;25082;50.870;0.022;2022-12-18T15:51:33;19.20;57.00
37806;DHT22;25082;50.870;0.022;2022-12-18T15:54:02;19.10;56.90
37806;DHT22;25082;50.870;0.022;2022-12-18T15:56:32;19.20;57.00
37806;DHT22;25082;50.870;0.022;2022-12-18T15:59:19;19.20;57.20
37806;DHT22;25082;50.870;0.022;2022-12-18T16:01:49;19.20;57.40
37806;DHT22;25082;50.870;0.022;2022-12-18T16:04:17;19.20;57.80
37806;DHT22;25082;50.870;0.022;2022-12-18T16:06:46;19.20;58.70
37806;DHT22;25082;50.870;0.022;2022-12-18T16:09:12;19.20;59.00
37806;DHT22;25082;50.870;0.022;2022-12-18T16:11:39;19.20;58.90
37806;DHT22;25082;50.870;0.022;2022-12-18T16:16:47;19.30;59.60
37806;DHT22;25082;50.870;0.022;2022-12-18T16:19:14;19.40;60.10
37806;DHT22;25082;50.870;0.022;2022-12-18T16:21:39;19.40;60.80
37806;DHT22;25082;50.870;0.022;2022-12-18T16:24:07;19.40;61.80
37806;DHT22;25082;50.870;0.022;2022-12-18T16:26:34;19.40;62.20
37806;DHT22;25082;50.870;0.022;2022-12-18T16:29:00;19.40;62.70
37806;DHT22;25082;50.870;0.022;2022-12-18T16:31:26;19.40;63.60
37806;DHT22;25082;50.870;0.022;2022-12-18T16:34:13;19.40;64.00
37806;DHT22;25082;50.870;0.022;2022-12-18T16:36:39;19.50;63.90
37806;DHT22;25082;50.870;0.022;2022-12-18T16:39:05;19.50;63.00
37806;DHT22;25082;50.870;0.022;2022-12-18T16:41:31;19.50;62.30
37806;DHT22;25082;50.870;0.022;2022-12-18T16:43:57;19.60;62.00
37806;DHT22;25082;50.870;0.022;2022-12-18T16:46:23;19.60;61.10
37806;DHT22;25082;50.870;0.022;2022-12-18T16:48:49;19.60;60.70
37806;DHT22;25082;50.870;0.022;2022-12-18T16:51:15;19.60;60.40
37806;DHT22;25082;50.870;0.022;2022-12-18T16:53:40;19.60;60.00
37806;DHT22;25082;50.870;0.022;2022-12-18T16:56:06;19.60;59.80
37806;DHT22;25082;50.870;0.022;2022-12-18T16:58:32;19.60;59.60
37806;DHT22;25082;50.870;0.022;2022-12-18T17:00:58;19.60;59.40
37806;DHT22;25082;50.870;0.022;2022-12-18T17:03:24;19.60;59.20
37806;DHT22;25082;50.870;0.022;2022-12-18T17:05:50;19.60;59.00
37806;DHT22;25082;50.870;0.022;2022-12-18T17:08:15;19.60;58.90
37806;DHT22;25082;50.870;0.022;2022-12-18T17:10:41;19.60;58.70
37806;DHT22;25082;50.870;0.022;2022-12-18T17:13:07;19.60;58.60
37806;DHT22;25082;50.870;0.022;2022-12-18T17:15:36;19.60;58.40
37806;DHT22;25082;50.870;0.022;2022-12-18T17:18:02;19.60;58.20
37806;DHT22;25082;50.870;0.022;2022-12-18T17:20:29;19.60;58.20
37806;DHT22;25082;50.870;0.022;2022-12-18T17:22:55;19.60;58.10
37806;DHT22;25082;50.870;0.022;2022-12-18T17:25:21;19.60;58.00
37806;DHT22;25082;50.870;0.022;2022-12-18T17:27:46;19.60;57.80
37806;DHT22;25082;50.870;0.022;2022-12-18T17:30:12;19.60;57.80
37806;DHT22;25082;50.870;0.022;2022-12-18T17:32:38;19.50;57.60
37806;DHT22;25082;50.870;0.022;2022-12-18T17:35:04;19.60;57.60
37806;DHT22;25082;50.870;0.022;2022-12-18T17:37:30;19.60;57.60
37806;DHT22;25082;50.870;0.022;2022-12-18T17:39:56;19.50;57.40
37806;DHT22;25082;50.870;0.022;2022-12-18T17:42:21;19.50;57.10
37806;DHT22;25082;50.870;0.022;2022-12-18T17:44:47;19.50;57.00
37806;DHT22;25082;50.870;0.022;2022-12-18T17:47:13;19.60;56.90
37806;DHT22;25082;50.870;0.022;2022-12-18T17:49:39;19.50;56.80
37806;DHT22;25082;50.870;0.022;2022-12-18T17:52:04;19.60;56.70
37806;DHT22;25082;50.870;0.022;2022-12-18T17:54:31;19.60;56.60
37806;DHT22;25082;50.870;0.022;2022-12-18T17:56:57;19.50;56.40
37806;DHT22;25082;50.870;0.022;2022-12-18T17:59:23;19.50;56.40
37806;DHT22;25082;50.870;0.022;2022-12-18T18:01:49;19.60;56.60
37806;DHT22;25082;50.870;0.022;2022-12-18T18:04:14;19.60;56.80
37806;DHT22;25082;50.870;0.022;2022-12-18T18:06:40;19.50;56.80